createdAt,value
2023-05-05T00:00:20.851Z,12.12
2023-05-05T00:05:23.928Z,12.11
2023-05-05T00:10:25.435Z,12.12
2023-05-05T00:15:27.455Z,12.11
2023-05-05T00:20:28.767Z,12.05
2023-05-05T00:25:30.098Z,12.07
2023-05-05T00:30:33.524Z,12.18
2023-05-05T00:35:34.876Z,12.14
2023-05-05T00:40:37.061Z,12.18
2023-05-05T00:45:42.653Z,12.11
2023-05-05T00:50:45.192Z,12.10
2023-05-05T00:55:46.566Z,12.01
2023-05-05T01:00:48.588Z,11.85
2023-05-05T01:06:04.903Z,11.86
2023-05-05T01:11:27.069Z,11.86
2023-05-05T01:16:30.799Z,11.78
2023-05-05T01:21:36.180Z,11.68
2023-05-05T01:26:43.711Z,11.54
2023-05-05T01:31:51.914Z,11.44
2023-05-05T01:36:57.108Z,11.32
2023-05-05T01:42:02.464Z,11.18
2023-05-05T01:47:05.017Z,11.03
2023-05-05T01:52:06.767Z,10.79
2023-05-05T01:57:10.012Z,10.68
2023-05-05T02:02:12.998Z,10.65
2023-05-05T02:07:15.250Z,10.58
2023-05-05T02:12:18.546Z,10.52
2023-05-05T02:17:21.762Z,10.47
2023-05-05T02:22:23.080Z,10.35
2023-05-05T02:27:25.396Z,10.40
2023-05-05T02:32:31.454Z,10.35
2023-05-05T02:37:33.936Z,10.33
2023-05-05T02:42:36.812Z,10.38
2023-05-05T02:47:38.871Z,10.48
2023-05-05T02:52:40.314Z,10.44
2023-05-05T02:57:47.467Z,10.36
2023-05-05T03:02:48.856Z,10.30
2023-05-05T03:08:02.357Z,10.34
2023-05-05T03:13:06.896Z,10.35
2023-05-05T03:18:09.008Z,10.39
2023-05-05T03:23:10.967Z,10.38
2023-05-05T03:28:12.589Z,10.35
2023-05-05T03:33:13.977Z,10.23
2023-05-05T03:38:15.281Z,10.15
2023-05-05T03:43:16.834Z,10.03
2023-05-05T03:48:18.134Z,9.94
2023-05-05T03:53:19.432Z,9.86
2023-05-05T03:58:20.851Z,9.89
2023-05-05T04:03:22.667Z,9.92
2023-05-05T04:08:24.165Z,9.94
2023-05-05T04:13:25.527Z,9.98
2023-05-05T04:18:26.920Z,9.94
2023-05-05T04:23:28.269Z,9.96
2023-05-05T04:28:29.780Z,10.10
2023-05-05T04:33:31.209Z,10.16
2023-05-05T04:38:32.832Z,10.28
2023-05-05T04:43:34.329Z,10.46
2023-05-05T04:48:37.044Z,10.68
2023-05-05T04:53:38.537Z,11.02
2023-05-05T04:58:39.846Z,11.26
2023-05-05T05:03:41.471Z,11.44
2023-05-05T05:08:42.901Z,11.27
2023-05-05T05:13:44.205Z,11.40
2023-05-05T05:18:45.581Z,11.82
2023-05-05T05:23:47.322Z,12.12
2023-05-05T05:28:48.849Z,12.12
2023-05-05T05:33:51.009Z,11.89
2023-05-05T05:38:52.305Z,12.31
2023-05-05T05:43:53.635Z,12.65
2023-05-05T05:48:55.009Z,13.28
2023-05-05T05:53:57.491Z,13.84
2023-05-05T05:59:01.358Z,14.85
2023-05-05T06:04:02.950Z,15.07
2023-05-05T06:09:04.279Z,14.69
2023-05-05T06:14:05.631Z,15.11
2023-05-05T06:19:09.588Z,14.85
2023-05-05T06:24:10.906Z,15.70
2023-05-05T06:29:12.423Z,16.26
2023-05-05T06:34:13.837Z,16.07
2023-05-05T06:39:16.172Z,16.84
2023-05-05T06:44:17.588Z,17.88
2023-05-05T06:49:18.999Z,18.86
2023-05-05T06:54:20.377Z,18.12
2023-05-05T06:59:21.663Z,19.31
2023-05-05T07:04:23.052Z,20.82
2023-05-05T07:09:24.375Z,21.69
2023-05-05T07:14:26.163Z,21.61
2023-05-05T07:19:27.506Z,20.76
2023-05-05T07:24:28.822Z,22.16
2023-05-05T07:29:30.856Z,21.36
2023-05-05T07:34:34.300Z,21.75
2023-05-05T07:39:35.755Z,22.23
2023-05-05T07:44:37.068Z,22.74
2023-05-05T07:49:38.369Z,22.16
2023-05-05T07:54:39.756Z,23.58
2023-05-05T07:59:43.370Z,23.05
2023-05-05T08:04:44.795Z,22.20
2023-05-05T08:09:46.190Z,23.61
2023-05-05T08:14:47.580Z,24.87
2023-05-05T08:19:51.518Z,23.44
2023-05-05T08:24:52.861Z,24.94
2023-05-05T08:29:54.160Z,25.85
2023-05-05T08:34:56.474Z,26.04
2023-05-05T08:39:58.461Z,27.91
2023-05-05T08:44:59.931Z,27.57
2023-05-05T08:50:02.037Z,27.37
2023-05-05T08:55:12.825Z,27.52
2023-05-05T09:00:14.640Z,28.06
2023-05-05T09:05:17.638Z,27.91
2023-05-05T09:10:19.004Z,26.46
2023-05-05T09:15:20.571Z,27.30
2023-05-05T09:20:22.161Z,28.51
2023-05-05T09:25:23.477Z,28.63
2023-05-05T09:30:25.235Z,27.56
2023-05-05T09:35:26.799Z,28.33
2023-05-05T09:40:44.029Z,30.31
2023-05-05T09:45:46.078Z,30.75
2023-05-05T09:50:47.766Z,28.43
2023-05-05T09:56:07.474Z,24.46
2023-05-05T10:01:21.088Z,23.58
2023-05-05T10:06:39.070Z,22.33
2023-05-05T10:11:44.884Z,22.19
2023-05-05T10:16:50.836Z,22.20
2023-05-05T10:21:53.113Z,21.74
2023-05-05T10:26:56.354Z,21.64
2023-05-05T10:32:08.736Z,21.25
2023-05-05T10:37:19.032Z,21.27
2023-05-05T10:42:21.083Z,21.32
2023-05-05T10:47:22.617Z,21.75
2023-05-05T10:52:37.784Z,23.24
2023-05-05T10:57:40.521Z,26.15
2023-05-05T11:02:42.001Z,25.24
2023-05-05T11:07:47.309Z,26.94
2023-05-05T11:12:52.072Z,29.18
2023-05-05T11:17:54.331Z,28.93
2023-05-05T11:23:05.348Z,27.24
2023-05-05T11:28:07.102Z,26.69
2023-05-05T11:33:25.568Z,26.20
2023-05-05T11:38:33.264Z,25.43
2023-05-05T11:43:34.639Z,25.63
2023-05-05T11:48:43.912Z,25.30
2023-05-05T11:53:46.470Z,25.06
2023-05-05T11:59:06.087Z,25.16
2023-05-05T12:04:08.537Z,24.60
2023-05-05T12:09:20.125Z,23.28
2023-05-05T12:14:21.746Z,22.43
2023-05-05T12:19:23.699Z,22.20
2023-05-05T12:24:25.058Z,21.61
2023-05-05T12:29:28.664Z,20.71
2023-05-05T12:34:31.249Z,20.29
2023-05-05T12:39:36.549Z,19.50
2023-05-05T12:44:38.850Z,19.55
2023-05-05T12:49:50.399Z,19.44
2023-05-05T12:54:54.862Z,18.30
2023-05-05T12:59:56.590Z,17.90
2023-05-05T13:04:57.970Z,18.38
2023-05-05T13:10:06.834Z,19.38
2023-05-05T13:15:08.757Z,19.95
2023-05-05T13:20:11.241Z,19.71
2023-05-05T13:25:12.777Z,20.10
2023-05-05T13:30:14.368Z,19.67
2023-05-05T13:35:16.537Z,18.93
2023-05-05T13:40:18.279Z,19.12
2023-05-05T13:45:19.757Z,19.33
2023-05-05T13:50:21.081Z,19.30
2023-05-05T13:55:22.583Z,18.69
2023-05-05T14:00:24.001Z,18.47
2023-05-05T14:05:25.392Z,18.47
2023-05-05T14:10:29.703Z,18.30
2023-05-05T14:15:31.046Z,18.57
2023-05-05T14:20:32.404Z,18.46
2023-05-05T14:25:33.801Z,19.03
2023-05-05T14:30:35.196Z,18.91
2023-05-05T14:35:36.563Z,18.91
2023-05-05T14:40:37.887Z,19.26
2023-05-05T14:45:39.403Z,19.48
2023-05-05T14:50:42.384Z,19.71
2023-05-05T14:55:44.455Z,20.14
2023-05-05T15:00:45.823Z,19.90
2023-05-05T15:05:47.146Z,19.57
2023-05-05T15:10:48.461Z,19.17
2023-05-05T15:15:50.034Z,19.83
2023-05-05T15:20:51.428Z,19.61
2023-05-05T15:25:52.744Z,19.33
2023-05-05T15:30:54.067Z,19.23
2023-05-05T15:35:55.364Z,19.19
2023-05-05T15:40:56.702Z,19.03
2023-05-05T15:45:58.022Z,19.57
2023-05-05T15:50:59.332Z,19.83
2023-05-05T15:56:00.765Z,20.24
2023-05-05T16:01:02.179Z,20.17
2023-05-05T16:06:03.616Z,19.67
2023-05-05T16:11:05.047Z,19.96
2023-05-05T16:16:06.789Z,19.40
2023-05-05T16:21:08.175Z,19.42
2023-05-05T16:26:09.480Z,19.97
2023-05-05T16:31:11.130Z,20.20
2023-05-05T16:36:12.823Z,20.05
2023-05-05T16:41:14.254Z,19.84
2023-05-05T16:46:15.715Z,19.62
2023-05-05T16:51:17.015Z,19.03
2023-05-05T16:56:18.392Z,18.73
2023-05-05T17:01:19.787Z,18.28
2023-05-05T17:06:21.100Z,18.11
2023-05-05T17:11:22.567Z,17.46
2023-05-05T17:16:23.954Z,17.61
2023-05-05T17:21:25.291Z,17.38
2023-05-05T17:26:26.594Z,16.93
2023-05-05T17:31:28.007Z,16.84
2023-05-05T17:36:29.401Z,16.66
2023-05-05T17:41:30.822Z,16.53
2023-05-05T17:46:32.127Z,16.66
2023-05-05T17:51:33.508Z,16.66
2023-05-05T17:56:36.650Z,16.38
2023-05-05T18:01:38.025Z,16.36
2023-05-05T18:06:39.340Z,16.28
2023-05-05T18:11:42.097Z,16.15
2023-05-05T18:16:48.646Z,15.93
2023-05-05T18:21:51.560Z,15.68
2023-05-05T18:26:52.894Z,15.58
2023-05-05T18:31:54.906Z,15.43
2023-05-05T18:36:57.080Z,15.32
2023-05-05T18:41:58.419Z,15.39
2023-05-05T18:46:59.833Z,15.34
2023-05-05T18:52:01.248Z,15.41
2023-05-05T18:57:03.394Z,15.39
2023-05-05T19:02:04.731Z,15.29
2023-05-05T19:07:06.490Z,15.16
2023-05-05T19:12:07.880Z,15.00
2023-05-05T19:17:09.206Z,14.88
2023-05-05T19:22:10.525Z,14.85
2023-05-05T19:27:15.383Z,14.88
2023-05-05T19:32:18.720Z,14.96
2023-05-05T19:37:20.469Z,14.87
2023-05-05T19:42:21.767Z,14.78
2023-05-05T19:47:23.156Z,14.75
2023-05-05T19:52:24.506Z,14.70
2023-05-05T19:57:26.309Z,14.51
2023-05-05T20:02:28.424Z,14.31
2023-05-05T20:07:29.804Z,14.27
2023-05-05T20:12:31.194Z,14.33
2023-05-05T20:17:32.551Z,14.20
2023-05-05T20:22:33.969Z,14.19
2023-05-05T20:27:36.097Z,14.13
2023-05-05T20:32:37.988Z,13.98
2023-05-05T20:37:39.356Z,13.90
2023-05-05T20:42:40.724Z,13.90
2023-05-05T20:47:42.077Z,13.92
2023-05-05T20:52:43.392Z,13.82
2023-05-05T20:57:44.703Z,13.62
2023-05-05T21:02:46.197Z,13.33
2023-05-05T21:07:47.657Z,13.13
2023-05-05T21:12:49.044Z,12.94
2023-05-05T21:17:51.134Z,12.81
2023-05-05T21:22:52.520Z,12.65
2023-05-05T21:27:53.818Z,12.60
2023-05-05T21:32:55.208Z,12.50
2023-05-05T21:37:56.613Z,12.32
2023-05-05T21:42:57.980Z,12.21
2023-05-05T21:47:59.335Z,12.21
2023-05-05T21:53:00.654Z,12.07
2023-05-05T21:58:01.928Z,12.08
2023-05-05T22:03:03.492Z,12.07
2023-05-05T22:08:04.866Z,12.10
2023-05-05T22:13:06.371Z,12.10
2023-05-05T22:18:07.830Z,12.03
2023-05-05T22:23:09.295Z,12.09
2023-05-05T22:28:11.344Z,12.09
2023-05-05T22:33:13.090Z,12.10
2023-05-05T22:38:14.408Z,12.07
2023-05-05T22:43:15.752Z,12.04
2023-05-05T22:48:17.150Z,11.94
2023-05-05T22:53:18.510Z,11.90
2023-05-05T22:58:19.825Z,11.81
2023-05-05T23:03:21.124Z,11.86
2023-05-05T23:08:23.963Z,11.87
2023-05-05T23:13:25.426Z,11.92
2023-05-05T23:18:26.741Z,11.93
2023-05-05T23:23:28.022Z,12.02
2023-05-05T23:28:29.325Z,12.00
2023-05-05T23:33:30.765Z,11.92
2023-05-05T23:38:32.067Z,11.91
2023-05-05T23:43:33.426Z,11.78
2023-05-05T23:48:34.734Z,11.74
2023-05-05T23:53:36.021Z,11.76
2023-05-05T23:58:37.514Z,11.72
